N957JS LEZL-LPMA
Flight info
| Callsign | N957JS |
|---|---|
| Flight time | 1h 8m |
| Altitude | 45000 |
| Route | ONUBA N747 MINTA DCT NARTA DCT RAKUN |
| Aircraft | C750/M-SBDE3FGHRWXY/S |
Departure
| Time | 2026-04-26 10:26 |
|---|---|
| Airport | Seville Airport (LEZL) |
Arrival
| Time | 2026-04-26 11:34 |
|---|---|
| Airport | Cristiano Ronaldo International Airport (LPMA) |
| Time | Latitude | Longitude | Altitude | Speed | Heading |
|---|---|---|---|---|---|
| 2026-04-26 10:14 | 37.42128 | -5.90562 | 90 ft | 0 kts | 269° |
| 2026-04-26 10:18 | 37.42128 | -5.90579 | 92 ft | 3 kts | 269° |
| 2026-04-26 10:18 | 37.42114 | -5.90593 | 90 ft | 3 kts | 181° |
| 2026-04-26 10:19 | 37.42084 | -5.90593 | 90 ft | 6 kts | 178° |
| 2026-04-26 10:19 | 37.42054 | -5.90593 | 90 ft | 1 kts | 179° |
| 2026-04-26 10:19 | 37.42037 | -5.90588 | 90 ft | 4 kts | 145° |
| 2026-04-26 10:19 | 37.42032 | -5.90547 | 90 ft | 6 kts | 92° |
| 2026-04-26 10:20 | 37.41995 | -5.90532 | 90 ft | 8 kts | 202° |
| 2026-04-26 10:20 | 37.41979 | -5.90602 | 89 ft | 10 kts | 268° |
| 2026-04-26 10:20 | 37.41976 | -5.90706 | 89 ft | 14 kts | 269° |
| 2026-04-26 10:20 | 37.41977 | -5.90837 | 88 ft | 15 kts | 270° |
| 2026-04-26 10:21 | 37.41977 | -5.90967 | 87 ft | 15 kts | 270° |
| 2026-04-26 10:21 | 37.41977 | -5.91094 | 86 ft | 14 kts | 270° |
| 2026-04-26 10:21 | 37.41976 | -5.91214 | 85 ft | 13 kts | 265° |
| 2026-04-26 10:21 | 37.41958 | -5.91295 | 88 ft | 5 kts | 224° |
| 2026-04-26 10:22 | 37.41949 | -5.91301 | 87 ft | 0 kts | 207° |
| 2026-04-26 10:22 | 37.41948 | -5.91302 | 86 ft | 0 kts | 207° |
| 2026-04-26 10:23 | 37.41939 | -5.91307 | 85 ft | 3 kts | 202° |
| 2026-04-26 10:23 | 37.41916 | -5.91312 | 85 ft | 5 kts | 180° |
| 2026-04-26 10:23 | 37.41873 | -5.91292 | 87 ft | 9 kts | 144° |
| 2026-04-26 10:23 | 37.41826 | -5.91218 | 86 ft | 11 kts | 121° |
| 2026-04-26 10:24 | 37.41791 | -5.91146 | 88 ft | 9 kts | 104° |
| 2026-04-26 10:24 | 37.41788 | -5.91111 | 87 ft | 0 kts | 90° |
| 2026-04-26 10:24 | 37.41788 | -5.91047 | 89 ft | 36 kts | 90° |
| 2026-04-26 10:24 | 37.41795 | -5.90252 | 94 ft | 134 kts | 89° |
| 2026-04-26 10:25 | 37.41802 | -5.88976 | 503 ft | 146 kts | 91° |
| 2026-04-26 10:25 | 37.41794 | -5.87600 | 698 ft | 168 kts | 89° |
| 2026-04-26 10:25 | 37.41790 | -5.86014 | 648 ft | 194 kts | 89° |
| 2026-04-26 10:25 | 37.41791 | -5.84277 | 671 ft | 202 kts | 89° |
| 2026-04-26 10:26 | 37.41726 | -5.82604 | 784 ft | 195 kts | 100° |
| 2026-04-26 10:26 | 37.41053 | -5.81098 | 732 ft | 203 kts | 131° |
| 2026-04-26 10:26 | 37.39864 | -5.80223 | 952 ft | 200 kts | 159° |
| 2026-04-26 10:26 | 37.38463 | -5.80172 | 1389 ft | 206 kts | 190° |
| 2026-04-26 10:27 | 37.37225 | -5.81039 | 1871 ft | 208 kts | 222° |
| 2026-04-26 10:27 | 37.36432 | -5.82643 | 1954 ft | 227 kts | 246° |
| 2026-04-26 10:27 | 37.35695 | -5.84398 | 2289 ft | 226 kts | 234° |
| 2026-04-26 10:27 | 37.34704 | -5.85958 | 2640 ft | 227 kts | 226° |
| 2026-04-26 10:28 | 37.33602 | -5.87380 | 2984 ft | 230 kts | 221° |
| 2026-04-26 10:28 | 37.32442 | -5.88781 | 4022 ft | 223 kts | 222° |
| 2026-04-26 10:28 | 37.31349 | -5.90149 | 5102 ft | 226 kts | 223° |
| 2026-04-26 10:28 | 37.30223 | -5.91584 | 5936 ft | 234 kts | 223° |
| 2026-04-26 10:29 | 37.29067 | -5.93043 | 6853 ft | 237 kts | 223° |
| 2026-04-26 10:29 | 37.27906 | -5.94500 | 7745 ft | 242 kts | 222° |
| 2026-04-26 10:29 | 37.26709 | -5.96004 | 8730 ft | 245 kts | 222° |
| 2026-04-26 10:29 | 37.25562 | -5.97618 | 9568 ft | 255 kts | 236° |
| 2026-04-26 10:30 | 37.25080 | -5.99856 | 9917 ft | 285 kts | 269° |
| 2026-04-26 10:30 | 37.25306 | -6.02448 | 10216 ft | 310 kts | 279° |
| 2026-04-26 10:30 | 37.25679 | -6.05226 | 10502 ft | 334 kts | 279° |
| 2026-04-26 10:30 | 37.26014 | -6.08221 | 10681 ft | 359 kts | 277° |
| 2026-04-26 10:31 | 37.26313 | -6.11449 | 10766 ft | 384 kts | 277° |
| 2026-04-26 10:31 | 37.26653 | -6.14868 | 10862 ft | 403 kts | 278° |
| 2026-04-26 10:31 | 37.27037 | -6.18361 | 11512 ft | 404 kts | 278° |
| 2026-04-26 10:31 | 37.27411 | -6.21877 | 12106 ft | 408 kts | 278° |
| 2026-04-26 10:32 | 37.27766 | -6.25425 | 12678 ft | 412 kts | 278° |
| 2026-04-26 10:32 | 37.28128 | -6.29005 | 13258 ft | 415 kts | 278° |
| 2026-04-26 10:32 | 37.28503 | -6.32615 | 13821 ft | 419 kts | 278° |
| 2026-04-26 10:32 | 37.28881 | -6.36256 | 14340 ft | 421 kts | 278° |
| 2026-04-26 10:33 | 37.29251 | -6.39911 | 14877 ft | 423 kts | 278° |
| 2026-04-26 10:33 | 37.29605 | -6.43586 | 15374 ft | 425 kts | 276° |
| 2026-04-26 10:33 | 37.29486 | -6.47312 | 15831 ft | 429 kts | 262° |
| 2026-04-26 10:33 | 37.28895 | -6.50982 | 16443 ft | 429 kts | 258° |
| 2026-04-26 10:34 | 37.28268 | -6.54659 | 17003 ft | 432 kts | 258° |
| 2026-04-26 10:34 | 37.27656 | -6.58314 | 17548 ft | 434 kts | 258° |
| 2026-04-26 10:34 | 37.27036 | -6.62039 | 18098 ft | 438 kts | 258° |
| 2026-04-26 10:34 | 37.26404 | -6.65787 | 18649 ft | 440 kts | 258° |
| 2026-04-26 10:35 | 37.25762 | -6.69561 | 19205 ft | 442 kts | 258° |
| 2026-04-26 10:35 | 37.25119 | -6.73354 | 19715 ft | 446 kts | 258° |
| 2026-04-26 10:35 | 37.24454 | -6.77161 | 20272 ft | 447 kts | 257° |
| 2026-04-26 10:35 | 37.23726 | -6.80971 | 20853 ft | 449 kts | 257° |
| 2026-04-26 10:36 | 37.23027 | -6.84802 | 21402 ft | 452 kts | 257° |
| 2026-04-26 10:36 | 37.22324 | -6.88647 | 21992 ft | 453 kts | 257° |
| 2026-04-26 10:36 | 37.21593 | -6.92511 | 22537 ft | 456 kts | 257° |
| 2026-04-26 10:36 | 37.20852 | -6.96397 | 23077 ft | 459 kts | 257° |
| 2026-04-26 10:37 | 37.20121 | -7.00302 | 23629 ft | 461 kts | 257° |
| 2026-04-26 10:37 | 37.19387 | -7.04234 | 24046 ft | 465 kts | 257° |
| 2026-04-26 10:37 | 37.18637 | -7.08194 | 24462 ft | 468 kts | 257° |
| 2026-04-26 10:37 | 37.17885 | -7.12120 | 24881 ft | 470 kts | 257° |
| 2026-04-26 10:38 | 37.17125 | -7.16111 | 25289 ft | 473 kts | 257° |
| 2026-04-26 10:38 | 37.16359 | -7.20146 | 25695 ft | 476 kts | 257° |
| 2026-04-26 10:38 | 37.15590 | -7.24192 | 26096 ft | 479 kts | 257° |
| 2026-04-26 10:38 | 37.14815 | -7.28259 | 26494 ft | 481 kts | 257° |
| 2026-04-26 10:39 | 37.14033 | -7.32353 | 26886 ft | 484 kts | 257° |
| 2026-04-26 10:39 | 37.13246 | -7.36468 | 27290 ft | 487 kts | 257° |
| 2026-04-26 10:39 | 37.12457 | -7.40601 | 27680 ft | 489 kts | 257° |
| 2026-04-26 10:39 | 37.11695 | -7.44769 | 28075 ft | 492 kts | 258° |
| 2026-04-26 10:40 | 37.10946 | -7.48971 | 28478 ft | 495 kts | 258° |
| 2026-04-26 10:40 | 37.10174 | -7.53184 | 28862 ft | 497 kts | 257° |
| 2026-04-26 10:40 | 37.09379 | -7.57412 | 29239 ft | 500 kts | 257° |
| 2026-04-26 10:40 | 37.08588 | -7.61666 | 29644 ft | 502 kts | 258° |
| 2026-04-26 10:41 | 37.07811 | -7.65912 | 30201 ft | 498 kts | 257° |
| 2026-04-26 10:41 | 37.07031 | -7.70130 | 30602 ft | 496 kts | 257° |
| 2026-04-26 10:41 | 37.06245 | -7.74328 | 31017 ft | 495 kts | 257° |
| 2026-04-26 10:41 | 37.05460 | -7.78515 | 31436 ft | 493 kts | 257° |
| 2026-04-26 10:42 | 37.04683 | -7.82693 | 31889 ft | 491 kts | 257° |
| 2026-04-26 10:42 | 37.03917 | -7.86797 | 32376 ft | 489 kts | 257° |
| 2026-04-26 10:42 | 37.03139 | -7.90931 | 32877 ft | 487 kts | 257° |
| 2026-04-26 10:42 | 37.02364 | -7.95051 | 33422 ft | 485 kts | 258° |
| 2026-04-26 10:43 | 37.01593 | -7.99147 | 33986 ft | 482 kts | 258° |
| 2026-04-26 10:43 | 37.00825 | -8.03219 | 34495 ft | 480 kts | 258° |
| 2026-04-26 10:43 | 37.00057 | -8.07279 | 34975 ft | 479 kts | 258° |
| 2026-04-26 10:43 | 36.99288 | -8.11333 | 35454 ft | 478 kts | 257° |
| 2026-04-26 10:44 | 36.98519 | -8.15383 | 35949 ft | 477 kts | 257° |
| 2026-04-26 10:44 | 36.97750 | -8.19429 | 36457 ft | 476 kts | 257° |
| 2026-04-26 10:44 | 36.96982 | -8.23455 | 36958 ft | 475 kts | 257° |
| 2026-04-26 10:44 | 36.96215 | -8.27469 | 37454 ft | 474 kts | 257° |
| 2026-04-26 10:45 | 36.95448 | -8.31475 | 37958 ft | 474 kts | 257° |
| 2026-04-26 10:45 | 36.94688 | -8.35440 | 38468 ft | 472 kts | 257° |
| 2026-04-26 10:45 | 36.93924 | -8.39416 | 38980 ft | 469 kts | 257° |
| 2026-04-26 10:45 | 36.93161 | -8.43379 | 39317 ft | 470 kts | 257° |
| 2026-04-26 10:46 | 36.92394 | -8.47353 | 39666 ft | 470 kts | 257° |
| 2026-04-26 10:46 | 36.91627 | -8.51323 | 40043 ft | 470 kts | 257° |
| 2026-04-26 10:46 | 36.90860 | -8.55286 | 40421 ft | 470 kts | 256° |
| 2026-04-26 10:46 | 36.90090 | -8.59254 | 40801 ft | 470 kts | 256° |
| 2026-04-26 10:47 | 36.89318 | -8.63226 | 41188 ft | 470 kts | 256° |
| 2026-04-26 10:47 | 36.88547 | -8.67185 | 41585 ft | 469 kts | 256° |
| 2026-04-26 10:47 | 36.87773 | -8.71150 | 41977 ft | 469 kts | 256° |
| 2026-04-26 10:47 | 36.86998 | -8.75117 | 42343 ft | 470 kts | 256° |
| 2026-04-26 10:48 | 36.86221 | -8.79082 | 42708 ft | 470 kts | 256° |
| 2026-04-26 10:48 | 36.85441 | -8.83056 | 43095 ft | 470 kts | 256° |
| 2026-04-26 10:48 | 36.84663 | -8.87016 | 43476 ft | 470 kts | 256° |
| 2026-04-26 10:48 | 36.83881 | -8.90984 | 43853 ft | 470 kts | 256° |
| 2026-04-26 10:49 | 36.83098 | -8.94949 | 44242 ft | 470 kts | 256° |
| 2026-04-26 10:49 | 36.82323 | -8.98868 | 44602 ft | 470 kts | 256° |
| 2026-04-26 10:49 | 36.81540 | -9.02824 | 44939 ft | 466 kts | 256° |
| 2026-04-26 10:49 | 36.80767 | -9.06721 | 45087 ft | 464 kts | 256° |
| 2026-04-26 10:50 | 36.79387 | -9.13654 | 45085 ft | 475 kts | 255° |
| 2026-04-26 10:50 | 36.71890 | -9.50941 | 45093 ft | 474 kts | 255° |
| 2026-04-26 10:51 | 36.62056 | -9.98893 | 45096 ft | 477 kts | 255° |
| 2026-04-26 10:52 | 36.55422 | -10.30660 | 45108 ft | 478 kts | 254° |
| 2026-04-26 10:52 | 36.48643 | -10.62654 | 45104 ft | 476 kts | 254° |
| 2026-04-26 10:53 | 36.41805 | -10.94472 | 45110 ft | 477 kts | 253° |
| 2026-04-26 10:53 | 36.34903 | -11.26140 | 45112 ft | 475 kts | 253° |
| 2026-04-26 10:54 | 36.24410 | -11.73463 | 45108 ft | 474 kts | 253° |
| 2026-04-26 10:54 | 36.17316 | -12.04920 | 45138 ft | 473 kts | 253° |
| 2026-04-26 10:55 | 36.10152 | -12.36268 | 45127 ft | 474 kts | 253° |
| 2026-04-26 10:55 | 36.02089 | -12.61088 | 45122 ft | 468 kts | 227° |
| 2026-04-26 10:56 | 35.81378 | -12.88515 | 45137 ft | 468 kts | 227° |
| 2026-04-26 10:56 | 35.63756 | -13.12006 | 45136 ft | 465 kts | 227° |
| 2026-04-26 10:57 | 35.46116 | -13.35392 | 45129 ft | 467 kts | 227° |
| 2026-04-26 10:57 | 35.28472 | -13.58625 | 45136 ft | 465 kts | 227° |
| 2026-04-26 10:58 | 35.21359 | -13.67947 | 45134 ft | 466 kts | 227° |
| 2026-04-26 10:58 | 35.16952 | -13.73709 | 45145 ft | 465 kts | 227° |
| 2026-04-26 10:59 | 35.12520 | -13.79495 | 45143 ft | 467 kts | 227° |
| 2026-04-26 10:59 | 35.08082 | -13.85278 | 45145 ft | 468 kts | 227° |
| 2026-04-26 11:00 | 35.03630 | -13.91068 | 45150 ft | 468 kts | 227° |
| 2026-04-26 11:00 | 34.99174 | -13.96856 | 45154 ft | 467 kts | 227° |
| 2026-04-26 11:01 | 34.94714 | -14.02638 | 45146 ft | 467 kts | 227° |
| 2026-04-26 11:01 | 34.90248 | -14.08418 | 45140 ft | 467 kts | 227° |
| 2026-04-26 11:02 | 34.85787 | -14.14182 | 45143 ft | 468 kts | 227° |
| 2026-04-26 11:02 | 34.81361 | -14.19891 | 45138 ft | 468 kts | 227° |
| 2026-04-26 11:03 | 34.67324 | -14.37933 | 45150 ft | 468 kts | 227° |
| 2026-04-26 11:03 | 34.49337 | -14.60914 | 45145 ft | 471 kts | 226° |
| 2026-04-26 11:04 | 34.37394 | -14.76088 | 45149 ft | 473 kts | 226° |
| 2026-04-26 11:04 | 34.32812 | -14.81893 | 45140 ft | 473 kts | 226° |
| 2026-04-26 11:05 | 34.28271 | -14.87634 | 45144 ft | 473 kts | 226° |
| 2026-04-26 11:05 | 34.23717 | -14.93384 | 45152 ft | 472 kts | 226° |
| 2026-04-26 11:06 | 34.19162 | -14.99124 | 45134 ft | 470 kts | 226° |
| 2026-04-26 11:06 | 34.16886 | -15.01990 | 44384 ft | 476 kts | 226° |
| 2026-04-26 11:06 | 34.14594 | -15.04872 | 43539 ft | 473 kts | 226° |
| 2026-04-26 11:07 | 34.12347 | -15.07696 | 42730 ft | 470 kts | 226° |
| 2026-04-26 11:07 | 34.10084 | -15.10537 | 41953 ft | 469 kts | 226° |
| 2026-04-26 11:07 | 34.07831 | -15.13364 | 41209 ft | 466 kts | 226° |
| 2026-04-26 11:07 | 34.05575 | -15.16193 | 40489 ft | 470 kts | 226° |
| 2026-04-26 11:08 | 34.03309 | -15.19031 | 39826 ft | 468 kts | 226° |
| 2026-04-26 11:08 | 34.01049 | -15.21859 | 39221 ft | 471 kts | 226° |
| 2026-04-26 11:08 | 33.98768 | -15.24711 | 38551 ft | 472 kts | 226° |
| 2026-04-26 11:08 | 33.96492 | -15.27556 | 37920 ft | 472 kts | 226° |
| 2026-04-26 11:09 | 33.94197 | -15.30421 | 37288 ft | 474 kts | 225° |
| 2026-04-26 11:09 | 33.91908 | -15.33275 | 36669 ft | 474 kts | 225° |
| 2026-04-26 11:09 | 33.89607 | -15.36143 | 36047 ft | 479 kts | 225° |
| 2026-04-26 11:09 | 33.87305 | -15.39012 | 35411 ft | 474 kts | 225° |
| 2026-04-26 11:10 | 33.85001 | -15.41878 | 34788 ft | 478 kts | 225° |
| 2026-04-26 11:10 | 33.82690 | -15.44749 | 34156 ft | 477 kts | 224° |
| 2026-04-26 11:10 | 33.80381 | -15.47619 | 33490 ft | 479 kts | 225° |
| 2026-04-26 11:10 | 33.78046 | -15.50516 | 32853 ft | 481 kts | 225° |
| 2026-04-26 11:11 | 33.75748 | -15.53368 | 32230 ft | 483 kts | 225° |
| 2026-04-26 11:11 | 33.73398 | -15.56279 | 31587 ft | 488 kts | 225° |
| 2026-04-26 11:11 | 33.71038 | -15.59200 | 30941 ft | 485 kts | 225° |
| 2026-04-26 11:11 | 33.68679 | -15.62118 | 30300 ft | 488 kts | 225° |
| 2026-04-26 11:12 | 33.66307 | -15.65051 | 29618 ft | 489 kts | 225° |
| 2026-04-26 11:12 | 33.63922 | -15.67995 | 28966 ft | 491 kts | 225° |
| 2026-04-26 11:12 | 33.61549 | -15.70924 | 28318 ft | 486 kts | 225° |
| 2026-04-26 11:12 | 33.59202 | -15.73818 | 27680 ft | 483 kts | 225° |
| 2026-04-26 11:13 | 33.56862 | -15.76700 | 27049 ft | 480 kts | 226° |
| 2026-04-26 11:13 | 33.54491 | -15.79497 | 26422 ft | 476 kts | 223° |
| 2026-04-26 11:13 | 33.52120 | -15.82253 | 25790 ft | 474 kts | 225° |
| 2026-04-26 11:13 | 33.49814 | -15.85057 | 25165 ft | 469 kts | 226° |
| 2026-04-26 11:14 | 33.47503 | -15.87801 | 24549 ft | 467 kts | 224° |
| 2026-04-26 11:14 | 33.45161 | -15.90488 | 23824 ft | 463 kts | 224° |
| 2026-04-26 11:14 | 33.42850 | -15.93159 | 23162 ft | 460 kts | 225° |
| 2026-04-26 11:14 | 33.40606 | -15.95811 | 22566 ft | 458 kts | 225° |
| 2026-04-26 11:15 | 33.38343 | -15.98482 | 21963 ft | 455 kts | 225° |
| 2026-04-26 11:15 | 33.36081 | -16.01109 | 21366 ft | 452 kts | 224° |
| 2026-04-26 11:15 | 33.33827 | -16.03720 | 20772 ft | 449 kts | 225° |
| 2026-04-26 11:15 | 33.31598 | -16.06323 | 20181 ft | 445 kts | 225° |
| 2026-04-26 11:16 | 33.29391 | -16.08905 | 19596 ft | 443 kts | 224° |
| 2026-04-26 11:16 | 33.27185 | -16.11472 | 19014 ft | 442 kts | 224° |
| 2026-04-26 11:16 | 33.24994 | -16.14013 | 18431 ft | 437 kts | 224° |
| 2026-04-26 11:16 | 33.22823 | -16.16537 | 17824 ft | 435 kts | 224° |
| 2026-04-26 11:17 | 33.20661 | -16.19051 | 17251 ft | 432 kts | 224° |
| 2026-04-26 11:17 | 33.18515 | -16.21541 | 16684 ft | 426 kts | 224° |
| 2026-04-26 11:17 | 33.16382 | -16.24013 | 16120 ft | 428 kts | 223° |
| 2026-04-26 11:17 | 33.14251 | -16.26481 | 15558 ft | 424 kts | 224° |
| 2026-04-26 11:18 | 33.12148 | -16.28919 | 15003 ft | 423 kts | 224° |
| 2026-04-26 11:18 | 33.10042 | -16.31356 | 14452 ft | 425 kts | 223° |
| 2026-04-26 11:18 | 33.07950 | -16.33774 | 13890 ft | 416 kts | 224° |
| 2026-04-26 11:18 | 33.05890 | -16.36154 | 13320 ft | 414 kts | 224° |
| 2026-04-26 11:19 | 33.03821 | -16.38544 | 12774 ft | 412 kts | 223° |
| 2026-04-26 11:19 | 33.01829 | -16.40844 | 12244 ft | 384 kts | 223° |
| 2026-04-26 11:19 | 33.00000 | -16.42954 | 11755 ft | 359 kts | 223° |
| 2026-04-26 11:19 | 32.98257 | -16.44964 | 11256 ft | 332 kts | 223° |
| 2026-04-26 11:20 | 32.96737 | -16.46717 | 10536 ft | 286 kts | 223° |
| 2026-04-26 11:20 | 32.95762 | -16.47838 | 10098 ft | 296 kts | 222° |
| 2026-04-26 11:20 | 32.93810 | -16.50078 | 9399 ft | 291 kts | 222° |
| 2026-04-26 11:20 | 32.92341 | -16.51692 | 8878 ft | 285 kts | 218° |
| 2026-04-26 11:21 | 32.90863 | -16.53232 | 8379 ft | 281 kts | 221° |
| 2026-04-26 11:21 | 32.89451 | -16.54813 | 7888 ft | 276 kts | 221° |
| 2026-04-26 11:21 | 32.87804 | -16.55869 | 7236 ft | 270 kts | 188° |
| 2026-04-26 11:21 | 32.85992 | -16.55645 | 6613 ft | 261 kts | 154° |
| 2026-04-26 11:22 | 32.84447 | -16.54591 | 6150 ft | 253 kts | 143° |
| 2026-04-26 11:22 | 32.83192 | -16.53225 | 5606 ft | 242 kts | 117° |
| 2026-04-26 11:22 | 32.82870 | -16.51333 | 4996 ft | 234 kts | 79° |
| 2026-04-26 11:22 | 32.83598 | -16.49660 | 4400 ft | 229 kts | 49° |
| 2026-04-26 11:23 | 32.84808 | -16.48490 | 3986 ft | 222 kts | 22° |
| 2026-04-26 11:23 | 32.86263 | -16.48541 | 3992 ft | 219 kts | 341° |
| 2026-04-26 11:23 | 32.87457 | -16.49683 | 4053 ft | 224 kts | 318° |
| 2026-04-26 11:23 | 32.88533 | -16.51022 | 4063 ft | 224 kts | 318° |
| 2026-04-26 11:24 | 32.89417 | -16.52553 | 3868 ft | 232 kts | 291° |
| 2026-04-26 11:24 | 32.89332 | -16.54451 | 3648 ft | 238 kts | 252° |
| 2026-04-26 11:24 | 32.88447 | -16.56073 | 3496 ft | 233 kts | 227° |
| 2026-04-26 11:24 | 32.87193 | -16.57337 | 3416 ft | 235 kts | 218° |
| 2026-04-26 11:25 | 32.85901 | -16.58576 | 3161 ft | 239 kts | 221° |
| 2026-04-26 11:25 | 32.84679 | -16.59883 | 3027 ft | 229 kts | 224° |
| 2026-04-26 11:25 | 32.83556 | -16.61110 | 3014 ft | 210 kts | 223° |
| 2026-04-26 11:25 | 32.82474 | -16.62240 | 3002 ft | 209 kts | 219° |
| 2026-04-26 11:26 | 32.81254 | -16.63167 | 3004 ft | 211 kts | 208° |
| 2026-04-26 11:26 | 32.79910 | -16.63835 | 3009 ft | 209 kts | 198° |
| 2026-04-26 11:26 | 32.78544 | -16.64370 | 3015 ft | 206 kts | 198° |
| 2026-04-26 11:26 | 32.77174 | -16.64932 | 3019 ft | 205 kts | 198° |
| 2026-04-26 11:27 | 32.75843 | -16.65477 | 3021 ft | 209 kts | 198° |
| 2026-04-26 11:27 | 32.74470 | -16.66034 | 3012 ft | 205 kts | 198° |
| 2026-04-26 11:27 | 32.73138 | -16.66575 | 3014 ft | 197 kts | 198° |
| 2026-04-26 11:27 | 32.71882 | -16.67085 | 2997 ft | 186 kts | 198° |
| 2026-04-26 11:28 | 32.70672 | -16.67575 | 2996 ft | 183 kts | 198° |
| 2026-04-26 11:28 | 32.69461 | -16.68066 | 3003 ft | 187 kts | 198° |
| 2026-04-26 11:28 | 32.68240 | -16.68560 | 2991 ft | 177 kts | 198° |
| 2026-04-26 11:28 | 32.67145 | -16.69005 | 2993 ft | 163 kts | 197° |
| 2026-04-26 11:29 | 32.66055 | -16.69445 | 2992 ft | 167 kts | 197° |
| 2026-04-26 11:29 | 32.64943 | -16.69895 | 3004 ft | 168 kts | 198° |
| 2026-04-26 11:29 | 32.63872 | -16.70340 | 2929 ft | 160 kts | 202° |
| 2026-04-26 11:29 | 32.62895 | -16.70996 | 2800 ft | 157 kts | 217° |
| 2026-04-26 11:30 | 32.62127 | -16.71822 | 2662 ft | 147 kts | 232° |
| 2026-04-26 11:30 | 32.61711 | -16.72451 | 2576 ft | 145 kts | 240° |
| 2026-04-26 11:30 | 32.61114 | -16.73870 | 2412 ft | 143 kts | 254° |
| 2026-04-26 11:30 | 32.60891 | -16.74991 | 2288 ft | 137 kts | 265° |
| 2026-04-26 11:31 | 32.60852 | -16.76093 | 2166 ft | 136 kts | 277° |
| 2026-04-26 11:31 | 32.60986 | -16.77188 | 2048 ft | 132 kts | 289° |
| 2026-04-26 11:31 | 32.61290 | -16.78196 | 1916 ft | 130 kts | 302° |
| 2026-04-26 11:31 | 32.61807 | -16.79073 | 1740 ft | 130 kts | 318° |
| 2026-04-26 11:32 | 32.62495 | -16.79749 | 1568 ft | 129 kts | 331° |
| 2026-04-26 11:32 | 32.63312 | -16.80185 | 1386 ft | 127 kts | 348° |
| 2026-04-26 11:32 | 32.64166 | -16.80347 | 1241 ft | 123 kts | 360° |
| 2026-04-26 11:32 | 32.65033 | -16.80340 | 1063 ft | 124 kts | 1° |
| 2026-04-26 11:33 | 32.65897 | -16.80345 | 886 ft | 122 kts | 2° |
| 2026-04-26 11:33 | 32.66729 | -16.80250 | 759 ft | 119 kts | 14° |
| 2026-04-26 11:33 | 32.67493 | -16.79902 | 622 ft | 117 kts | 28° |
| 2026-04-26 11:33 | 32.68158 | -16.79364 | 458 ft | 116 kts | 40° |
| 2026-04-26 11:34 | 32.68729 | -16.78684 | 253 ft | 114 kts | 43° |
| 2026-04-26 11:34 | 32.69275 | -16.78049 | 169 ft | 103 kts | 43° |
| 2026-04-26 11:34 | 32.69712 | -16.77542 | 177 ft | 68 kts | 45° |
| 2026-04-26 11:34 | 32.69927 | -16.77286 | 183 ft | 22 kts | 45° |
| 2026-04-26 11:35 | 32.69918 | -16.77180 | 191 ft | 15 kts | 167° |
| 2026-04-26 11:35 | 32.69814 | -16.77207 | 179 ft | 17 kts | 226° |
| 2026-04-26 11:35 | 32.69756 | -16.77280 | 172 ft | 12 kts | 227° |
| 2026-04-26 11:35 | 32.69713 | -16.77335 | 167 ft | 15 kts | 226° |
| 2026-04-26 11:36 | 32.69643 | -16.77377 | 166 ft | 5 kts | 127° |
| 2026-04-26 11:36 | 32.69631 | -16.77341 | 166 ft | 4 kts | 102° |
| 2026-04-26 11:36 | 32.69617 | -16.77322 | 166 ft | 3 kts | 137° |
| 2026-04-26 11:36 | 32.69612 | -16.77318 | 166 ft | 0 kts | 137° |